createdAt,value
2023-02-01T00:01:08.289Z,4.00
2023-02-01T00:03:34.950Z,4.03
2023-02-01T00:06:02.179Z,4.07
2023-02-01T00:08:28.688Z,4.09
2023-02-01T00:11:07.497Z,4.13
2023-02-01T00:13:36.144Z,4.14
2023-02-01T00:16:19.120Z,4.16
2023-02-01T00:18:46.849Z,4.14
2023-02-01T00:21:15.265Z,4.14
2023-02-01T00:23:42.049Z,4.19
2023-02-01T00:26:15.062Z,4.22
2023-02-01T00:28:41.600Z,4.28
2023-02-01T00:31:17.154Z,4.30
2023-02-01T00:33:43.642Z,4.33
2023-02-01T00:36:10.871Z,4.36
2023-02-01T00:38:38.629Z,4.38
2023-02-01T00:41:14.138Z,4.38
2023-02-01T00:43:41.157Z,4.38
2023-02-01T00:46:08.214Z,4.37
2023-02-01T00:48:35.063Z,4.40
2023-02-01T00:51:03.036Z,4.45
2023-02-01T00:53:30.544Z,4.52
2023-02-01T00:55:57.758Z,4.52
2023-02-01T00:58:27.742Z,4.53
2023-02-01T01:01:10.812Z,4.54
2023-02-01T01:03:42.220Z,4.57
2023-02-01T01:08:56.715Z,4.59
2023-02-01T01:11:35.250Z,4.61
2023-02-01T01:14:02.108Z,4.61
2023-02-01T01:16:31.225Z,4.65
2023-02-01T01:18:58.761Z,4.64
2023-02-01T01:21:28.987Z,4.66
2023-02-01T01:23:55.676Z,4.68
2023-02-01T01:26:25.291Z,4.65
2023-02-01T01:28:52.572Z,4.65
2023-02-01T01:31:31.079Z,4.71
2023-02-01T01:33:59.836Z,4.79
2023-02-01T01:36:27.791Z,4.77
2023-02-01T01:38:54.799Z,4.70
2023-02-01T01:41:32.895Z,4.68
2023-02-01T01:44:02.445Z,4.73
2023-02-01T01:46:37.649Z,4.78
2023-02-01T01:49:12.648Z,4.85
2023-02-01T01:51:44.684Z,4.84
2023-02-01T01:54:24.912Z,4.82
2023-02-01T01:56:57.865Z,4.89
2023-02-01T01:59:25.537Z,4.97
2023-02-01T02:01:53.359Z,5.00
2023-02-01T02:04:20.772Z,5.01
2023-02-01T02:07:01.235Z,5.03
2023-02-01T02:09:27.713Z,5.06
2023-02-01T02:11:54.284Z,5.11
2023-02-01T02:14:23.973Z,5.14
2023-02-01T02:16:56.744Z,5.20
2023-02-01T02:19:47.149Z,5.16
2023-02-01T02:22:40.344Z,5.18
2023-02-01T02:25:18.970Z,5.24
2023-02-01T02:28:23.198Z,5.23
2023-02-01T02:31:21.041Z,5.20
2023-02-01T02:34:09.460Z,5.25
2023-02-01T02:36:44.114Z,5.27
2023-02-01T02:39:23.279Z,5.24
2023-02-01T02:42:34.115Z,5.27
2023-02-01T02:45:36.868Z,5.32
2023-02-01T02:48:26.994Z,5.37
2023-02-01T02:51:25.289Z,5.38
2023-02-01T02:54:28.380Z,5.42
2023-02-01T02:57:16.716Z,5.44
2023-02-01T03:00:05.063Z,5.47
2023-02-01T03:02:51.473Z,5.52
2023-02-01T03:05:18.100Z,5.50
2023-02-01T03:07:58.225Z,5.57
2023-02-01T03:10:30.708Z,5.61
2023-02-01T03:13:04.496Z,5.59
2023-02-01T03:15:58.390Z,5.60
2023-02-01T03:18:51.190Z,5.58
2023-02-01T03:21:24.960Z,5.52
2023-02-01T03:23:53.336Z,5.47
2023-02-01T03:26:22.932Z,5.41
2023-02-01T03:28:56.951Z,5.33
2023-02-01T03:31:24.745Z,5.31
2023-02-01T03:33:51.654Z,5.26
2023-02-01T03:36:32.708Z,5.16
2023-02-01T03:39:17.535Z,5.15
2023-02-01T03:41:51.200Z,5.12
2023-02-01T03:44:17.519Z,5.15
2023-02-01T03:46:52.486Z,5.14
2023-02-01T03:49:28.594Z,5.15
2023-02-01T03:51:57.880Z,5.13
2023-02-01T03:54:26.265Z,5.13
2023-02-01T03:56:55.133Z,5.11
2023-02-01T03:59:21.661Z,5.12
2023-02-01T04:01:48.292Z,5.09
2023-02-01T04:04:20.797Z,5.05
2023-02-01T04:06:49.805Z,5.11
2023-02-01T04:09:16.920Z,5.19
2023-02-01T04:11:43.966Z,5.23
2023-02-01T04:14:10.777Z,5.25
2023-02-01T04:16:37.506Z,5.28
2023-02-01T04:19:03.961Z,5.34
2023-02-01T04:21:30.509Z,5.37
2023-02-01T04:23:56.956Z,5.42
2023-02-01T04:26:23.426Z,5.46
2023-02-01T04:28:49.967Z,5.52
2023-02-01T04:31:17.621Z,5.55
2023-02-01T04:33:47.552Z,5.56
2023-02-01T04:36:34.489Z,5.57
2023-02-01T04:39:01.221Z,5.55
2023-02-01T04:41:27.708Z,5.52
2023-02-01T04:43:54.302Z,5.53
2023-02-01T04:46:20.807Z,5.49
2023-02-01T04:48:47.331Z,5.43
2023-02-01T04:51:13.981Z,5.37
2023-02-01T04:53:40.416Z,5.32
2023-02-01T04:56:07.353Z,5.22
2023-02-01T04:58:33.875Z,5.19
2023-02-01T05:01:05.121Z,5.20
2023-02-01T05:03:35.830Z,5.14
2023-02-01T05:06:05.024Z,5.20
2023-02-01T05:08:32.596Z,5.19
2023-02-01T05:11:00.207Z,5.28
2023-02-01T05:13:45.348Z,5.36
2023-02-01T05:16:12.060Z,5.32
2023-02-01T05:18:39.041Z,5.25
2023-02-01T05:21:05.756Z,5.20
2023-02-01T05:23:32.441Z,5.18
2023-02-01T05:26:02.736Z,5.19
2023-02-01T05:28:29.809Z,5.29
2023-02-01T05:30:56.744Z,5.33
2023-02-01T05:33:23.284Z,5.39
2023-02-01T05:35:51.371Z,5.43
2023-02-01T05:38:17.924Z,5.48
2023-02-01T05:40:50.399Z,5.46
2023-02-01T05:43:16.784Z,5.44
2023-02-01T05:45:44.335Z,5.42
2023-02-01T05:48:10.878Z,5.43
2023-02-01T05:50:37.323Z,5.41
2023-02-01T05:53:03.876Z,5.41
2023-02-01T05:55:30.366Z,5.41
2023-02-01T05:57:56.823Z,5.42
2023-02-01T06:00:24.229Z,5.41
2023-02-01T06:02:50.927Z,5.42
2023-02-01T06:05:17.499Z,5.41
2023-02-01T06:07:43.983Z,5.43
2023-02-01T06:10:10.958Z,5.46
2023-02-01T06:12:38.067Z,5.47
2023-02-01T06:15:05.034Z,5.46
2023-02-01T06:17:34.675Z,5.45
2023-02-01T06:20:01.101Z,5.46
2023-02-01T06:22:27.553Z,5.46
2023-02-01T06:24:53.977Z,5.47
2023-02-01T06:27:20.418Z,5.45
2023-02-01T06:29:47.001Z,5.43
2023-02-01T06:32:13.511Z,5.42
2023-02-01T06:34:40.534Z,5.35
2023-02-01T06:37:06.953Z,5.33
2023-02-01T06:39:33.509Z,5.36
2023-02-01T06:42:00.221Z,5.36
2023-02-01T06:44:26.667Z,5.36
2023-02-01T06:46:53.102Z,5.33
2023-02-01T06:49:20.810Z,5.33
2023-02-01T06:51:47.616Z,5.28
2023-02-01T06:54:14.288Z,5.26
2023-02-01T06:56:40.743Z,5.22
2023-02-01T06:59:08.543Z,5.19
2023-02-01T07:01:35.078Z,5.19
2023-02-01T07:04:01.665Z,5.21
2023-02-01T07:06:28.215Z,5.23
2023-02-01T07:08:56.832Z,5.27
2023-02-01T07:11:23.685Z,5.32
2023-02-01T07:13:50.759Z,5.31
2023-02-01T07:16:19.877Z,5.34
2023-02-01T07:18:47.191Z,5.34
2023-02-01T07:21:14.280Z,5.28
2023-02-01T07:23:40.899Z,5.26
2023-02-01T07:26:10.525Z,5.27
2023-02-01T07:28:38.505Z,5.29
2023-02-01T07:31:07.106Z,5.27
2023-02-01T07:36:27.312Z,5.17
2023-02-01T07:38:56.501Z,5.19
2023-02-01T07:41:23.572Z,5.20
2023-02-01T07:44:07.783Z,5.23
2023-02-01T07:46:46.387Z,5.30
2023-02-01T07:49:14.981Z,5.32
2023-02-01T07:51:53.635Z,5.39
2023-02-01T07:54:20.280Z,5.45
2023-02-01T07:56:47.401Z,5.50
2023-02-01T07:59:14.188Z,5.53
2023-02-01T08:01:43.035Z,5.57
2023-02-01T08:06:59.241Z,5.58
2023-02-01T08:09:28.830Z,5.60
2023-02-01T08:11:55.239Z,5.59
2023-02-01T08:14:21.789Z,5.55
2023-02-01T08:16:48.247Z,5.54
2023-02-01T08:19:14.786Z,5.50
2023-02-01T08:21:41.598Z,5.54
2023-02-01T08:24:10.532Z,5.57
2023-02-01T08:26:37.047Z,5.75
2023-02-01T08:29:05.634Z,6.36
2023-02-01T08:31:32.256Z,6.67
2023-02-01T08:34:05.281Z,6.67
2023-02-01T08:36:32.819Z,7.88
2023-02-01T08:38:59.499Z,7.57
2023-02-01T08:41:29.997Z,6.95
2023-02-01T08:43:58.008Z,6.82
2023-02-01T08:46:24.799Z,6.72
2023-02-01T08:48:51.980Z,6.91
2023-02-01T08:51:20.363Z,8.01
2023-02-01T08:53:47.227Z,9.56
2023-02-01T08:56:16.510Z,9.08
2023-02-01T08:58:49.101Z,8.01
2023-02-01T09:01:17.949Z,7.57
2023-02-01T09:03:44.998Z,7.39
2023-02-01T09:06:13.891Z,7.26
2023-02-01T09:08:41.897Z,7.02
2023-02-01T09:11:12.653Z,6.94
2023-02-01T09:13:42.253Z,7.02
2023-02-01T09:16:08.974Z,7.29
2023-02-01T09:18:36.091Z,7.50
2023-02-01T09:21:11.759Z,7.63
2023-02-01T09:23:38.186Z,7.72
2023-02-01T09:26:05.990Z,7.70
2023-02-01T09:28:41.629Z,7.68
2023-02-01T09:31:08.166Z,7.61
2023-02-01T09:33:34.661Z,7.47
2023-02-01T09:36:03.696Z,7.30
2023-02-01T09:38:31.078Z,7.20
2023-02-01T09:41:01.738Z,7.13
2023-02-01T09:43:51.331Z,7.06
2023-02-01T09:46:33.929Z,7.00
2023-02-01T09:49:11.594Z,6.98
2023-02-01T09:51:42.373Z,6.96
2023-02-01T09:54:22.839Z,6.96
2023-02-01T09:57:08.889Z,6.94
2023-02-01T09:59:53.605Z,6.88
2023-02-01T10:02:26.764Z,6.83
2023-02-01T10:04:58.821Z,6.82
2023-02-01T10:08:13.644Z,6.85
2023-02-01T10:10:50.555Z,6.86
2023-02-01T10:13:39.694Z,6.87
2023-02-01T10:16:48.272Z,6.89
2023-02-01T10:19:48.099Z,6.83
2023-02-01T10:23:08.745Z,6.73
2023-02-01T10:25:38.093Z,6.58
2023-02-01T10:28:05.496Z,6.49
2023-02-01T10:30:41.614Z,6.43
2023-02-01T10:33:19.477Z,6.39
2023-02-01T10:35:47.426Z,6.36
2023-02-01T10:38:31.206Z,6.35
2023-02-01T10:41:20.633Z,6.35
2023-02-01T10:43:51.440Z,6.39
2023-02-01T10:46:18.513Z,6.41
2023-02-01T10:48:45.141Z,6.45
2023-02-01T10:51:20.860Z,6.48
2023-02-01T10:53:54.009Z,6.51
2023-02-01T10:56:42.598Z,6.51
2023-02-01T10:59:19.784Z,6.53
2023-02-01T11:01:49.422Z,6.58
2023-02-01T11:04:18.895Z,6.67
2023-02-01T11:07:05.443Z,6.75
2023-02-01T11:09:32.513Z,6.82
2023-02-01T11:12:00.523Z,6.85
2023-02-01T11:14:34.801Z,6.85
2023-02-01T11:17:13.379Z,6.91
2023-02-01T11:19:39.805Z,6.91
2023-02-01T11:22:06.797Z,6.89
2023-02-01T11:24:36.845Z,6.87
2023-02-01T11:27:07.130Z,6.87
2023-02-01T11:29:38.970Z,6.92
2023-02-01T11:32:06.124Z,6.97
2023-02-01T11:34:48.600Z,7.00
2023-02-01T11:37:21.736Z,7.01
2023-02-01T11:40:17.508Z,7.05
2023-02-01T11:42:59.428Z,7.05
2023-02-01T11:45:28.763Z,7.09
2023-02-01T11:47:57.129Z,7.24
2023-02-01T11:50:35.560Z,7.52
2023-02-01T11:53:53.125Z,7.55
2023-02-01T11:56:28.572Z,7.44
2023-02-01T11:59:16.320Z,7.52
2023-02-01T12:01:42.815Z,7.56
2023-02-01T12:04:37.060Z,7.86
2023-02-01T12:07:28.964Z,7.83
2023-02-01T12:10:23.396Z,7.77
2023-02-01T12:13:04.851Z,7.78
2023-02-01T12:15:48.175Z,7.76
2023-02-01T12:18:23.681Z,7.85
2023-02-01T12:21:23.881Z,7.89
2023-02-01T12:23:50.317Z,7.85
2023-02-01T12:26:22.662Z,7.80
2023-02-01T12:29:21.520Z,7.76
2023-02-01T12:31:55.862Z,7.71
2023-02-01T12:34:37.702Z,7.69
2023-02-01T12:37:29.252Z,7.68
2023-02-01T12:40:11.831Z,7.64
2023-02-01T12:42:47.469Z,7.58
2023-02-01T12:45:31.855Z,7.49
2023-02-01T12:48:22.415Z,7.45
2023-02-01T12:50:54.137Z,7.41
2023-02-01T12:53:27.017Z,7.37
2023-02-01T12:55:56.535Z,7.41
2023-02-01T12:58:23.023Z,7.44
2023-02-01T13:01:09.644Z,7.46
2023-02-01T13:03:54.029Z,7.48
2023-02-01T13:06:22.683Z,7.52
2023-02-01T13:09:03.108Z,7.55
2023-02-01T13:11:34.861Z,7.54
2023-02-01T13:14:25.923Z,7.49
2023-02-01T13:16:58.779Z,7.44
2023-02-01T13:19:58.517Z,7.41
2023-02-01T13:22:42.251Z,7.38
2023-02-01T13:25:11.548Z,7.34
2023-02-01T13:27:39.025Z,7.33
2023-02-01T13:30:21.059Z,7.37
2023-02-01T13:33:52.641Z,7.41
2023-02-01T13:35:58.689Z,7.44
2023-02-01T13:38:56.314Z,7.43
2023-02-01T13:41:29.483Z,7.46
2023-02-01T13:44:07.409Z,7.48
2023-02-01T13:46:46.405Z,7.48
2023-02-01T13:49:28.997Z,7.47
2023-02-01T13:51:58.241Z,7.50
2023-02-01T13:54:48.049Z,7.50
2023-02-01T13:57:38.393Z,7.52
2023-02-01T14:00:23.883Z,7.55
2023-02-01T14:03:02.417Z,7.56
2023-02-01T14:05:31.851Z,7.57
2023-02-01T14:08:07.245Z,7.57
2023-02-01T14:10:46.063Z,7.57
2023-02-01T14:13:40.320Z,7.59
2023-02-01T14:16:07.388Z,7.62
2023-02-01T14:18:45.274Z,7.62
2023-02-01T14:21:23.771Z,7.59
2023-02-01T14:23:53.458Z,7.57
2023-02-01T14:26:46.888Z,7.56
2023-02-01T14:29:20.835Z,7.54
2023-02-01T14:32:06.780Z,7.52
2023-02-01T14:34:36.170Z,7.52
2023-02-01T14:37:09.999Z,7.48
2023-02-01T14:39:47.501Z,7.49
2023-02-01T14:42:28.223Z,7.53
2023-02-01T14:45:16.205Z,7.53
2023-02-01T14:47:43.187Z,7.55
2023-02-01T14:50:34.516Z,7.56
2023-02-01T14:53:16.149Z,7.53
2023-02-01T14:55:59.839Z,7.49
2023-02-01T14:58:35.500Z,7.41
2023-02-01T15:01:13.908Z,7.33
2023-02-01T15:04:11.185Z,7.27
2023-02-01T15:06:41.001Z,7.22
2023-02-01T15:09:18.188Z,7.19
2023-02-01T15:12:05.393Z,7.19
2023-02-01T15:14:35.760Z,7.20
2023-02-01T15:17:02.559Z,7.19
2023-02-01T15:19:31.503Z,7.18
2023-02-01T15:21:59.555Z,7.18
2023-02-01T15:24:28.163Z,7.17
2023-02-01T15:26:56.392Z,7.19
2023-02-01T15:29:28.954Z,7.18
2023-02-01T15:32:02.255Z,7.17
2023-02-01T15:34:50.748Z,7.22
2023-02-01T15:37:19.419Z,7.25
2023-02-01T15:40:06.202Z,7.27
2023-02-01T15:42:32.771Z,7.27
2023-02-01T15:44:59.667Z,7.27
2023-02-01T15:47:31.659Z,7.34
2023-02-01T15:50:00.932Z,7.39
2023-02-01T15:52:37.401Z,7.40
2023-02-01T15:55:09.983Z,7.39
2023-02-01T15:57:40.695Z,7.40
2023-02-01T16:00:22.518Z,7.39
2023-02-01T16:02:55.590Z,7.33
2023-02-01T16:05:45.860Z,7.32
2023-02-01T16:08:22.856Z,7.27
2023-02-01T16:10:52.444Z,7.23
2023-02-01T16:13:20.995Z,7.27
2023-02-01T16:15:48.984Z,7.28
2023-02-01T16:18:17.826Z,7.28
2023-02-01T16:20:45.344Z,7.22
2023-02-01T16:23:12.084Z,7.23
2023-02-01T16:28:50.483Z,7.21
2023-02-01T16:31:20.458Z,7.21
2023-02-01T16:33:51.333Z,7.21
2023-02-01T16:36:18.835Z,7.24
2023-02-01T16:38:54.847Z,7.24
2023-02-01T16:41:23.479Z,7.26
2023-02-01T16:43:58.905Z,7.24
2023-02-01T16:46:30.883Z,7.23
2023-02-01T16:48:59.749Z,7.25
2023-02-01T16:51:33.093Z,7.24
2023-02-01T16:54:00.663Z,7.27
2023-02-01T16:56:32.042Z,7.33
2023-02-01T16:58:58.551Z,7.34
2023-02-01T17:01:25.835Z,7.37
2023-02-01T17:03:52.710Z,7.37
2023-02-01T17:06:22.772Z,7.40
2023-02-01T17:08:53.872Z,7.40
2023-02-01T17:11:20.771Z,7.37
2023-02-01T17:13:47.740Z,7.34
2023-02-01T17:16:29.054Z,7.30
2023-02-01T17:18:59.680Z,7.32
2023-02-01T17:21:28.744Z,7.31
2023-02-01T17:23:56.056Z,7.30
2023-02-01T17:26:22.504Z,7.32
2023-02-01T17:28:49.118Z,7.33
2023-02-01T17:31:17.435Z,7.28
2023-02-01T17:33:44.838Z,7.26
2023-02-01T17:36:15.213Z,7.26
2023-02-01T17:38:43.213Z,7.25
2023-02-01T17:41:12.699Z,7.29
2023-02-01T17:43:39.319Z,7.28
2023-02-01T17:46:14.824Z,7.28
2023-02-01T17:48:41.793Z,7.30
2023-02-01T17:51:17.588Z,7.29
2023-02-01T17:53:58.022Z,7.30
2023-02-01T17:56:37.909Z,7.35
2023-02-01T17:59:04.836Z,7.37
2023-02-01T18:01:38.112Z,7.41
2023-02-01T18:04:04.651Z,7.47
2023-02-01T18:06:43.081Z,7.52
2023-02-01T18:09:09.884Z,7.56
2023-02-01T18:11:36.329Z,7.52
2023-02-01T18:14:02.956Z,7.51
2023-02-01T18:16:34.493Z,7.41
2023-02-01T18:19:05.184Z,7.37
2023-02-01T18:21:43.994Z,7.36
2023-02-01T18:24:15.343Z,7.30
2023-02-01T18:26:42.530Z,7.29
2023-02-01T18:29:10.358Z,7.19
2023-02-01T18:31:49.566Z,7.06
2023-02-01T18:34:25.202Z,6.95
2023-02-01T18:36:51.603Z,6.92
2023-02-01T18:39:18.423Z,6.94
2023-02-01T18:41:48.058Z,6.99
2023-02-01T18:44:15.973Z,7.06
2023-02-01T18:46:42.945Z,7.10
2023-02-01T18:49:09.818Z,7.10
2023-02-01T18:51:36.184Z,7.16
2023-02-01T18:54:02.843Z,7.15
2023-02-01T18:56:29.336Z,7.17
2023-02-01T18:58:57.772Z,7.13
2023-02-01T19:01:24.250Z,7.17
2023-02-01T19:03:53.421Z,7.19
2023-02-01T19:06:22.795Z,7.18
2023-02-01T19:08:50.844Z,7.27
2023-02-01T19:11:17.222Z,7.30
2023-02-01T19:13:43.816Z,7.33
2023-02-01T19:16:12.657Z,7.38
2023-02-01T19:18:39.964Z,7.36
2023-02-01T19:21:11.865Z,7.36
2023-02-01T19:23:39.733Z,7.35
2023-02-01T19:26:14.159Z,7.34
2023-02-01T19:28:41.217Z,7.32
2023-02-01T19:31:08.909Z,7.30
2023-02-01T19:33:36.253Z,7.30
2023-02-01T19:36:05.971Z,7.31
2023-02-01T19:38:33.341Z,7.31
2023-02-01T19:40:59.838Z,7.30
2023-02-01T19:43:32.219Z,7.25
2023-02-01T19:45:58.726Z,7.25
2023-02-01T19:48:36.795Z,7.27
2023-02-01T19:51:06.912Z,7.28
2023-02-01T19:53:33.379Z,7.25
2023-02-01T19:56:01.639Z,7.20
2023-02-01T19:58:29.293Z,7.19
2023-02-01T20:00:56.626Z,7.14
2023-02-01T20:03:23.889Z,7.15
2023-02-01T20:05:54.613Z,7.14
2023-02-01T20:08:22.708Z,7.10
2023-02-01T20:10:49.611Z,7.12
2023-02-01T20:13:16.284Z,7.07
2023-02-01T20:15:45.676Z,7.08
2023-02-01T20:18:12.374Z,7.14
2023-02-01T20:20:40.826Z,7.17
2023-02-01T20:23:07.341Z,7.14
2023-02-01T20:25:36.656Z,7.10
2023-02-01T20:28:03.753Z,7.11
2023-02-01T20:30:32.241Z,7.12
2023-02-01T20:32:58.631Z,7.10
2023-02-01T20:35:25.301Z,7.15
2023-02-01T20:37:52.819Z,7.15
2023-02-01T20:40:19.396Z,7.12
2023-02-01T20:42:46.243Z,7.09
2023-02-01T20:45:12.710Z,7.12
2023-02-01T20:47:41.427Z,7.10
2023-02-01T20:50:08.593Z,7.12
2023-02-01T20:52:35.094Z,7.17
2023-02-01T20:55:01.618Z,7.18
2023-02-01T20:57:28.070Z,7.19
2023-02-01T20:59:54.529Z,7.17
2023-02-01T21:02:20.974Z,7.16
2023-02-01T21:04:47.558Z,7.19
2023-02-01T21:07:14.403Z,7.22
2023-02-01T21:09:41.898Z,7.22
2023-02-01T21:12:08.554Z,7.19
2023-02-01T21:14:35.529Z,7.20
2023-02-01T21:17:02.200Z,7.18
2023-02-01T21:19:42.845Z,7.23
2023-02-01T21:22:10.940Z,7.21
2023-02-01T21:24:37.597Z,7.22
2023-02-01T21:27:04.424Z,7.26
2023-02-01T21:29:36.745Z,7.30
2023-02-01T21:32:04.022Z,7.33
2023-02-01T21:34:30.701Z,7.35
2023-02-01T21:36:57.144Z,7.38
2023-02-01T21:39:23.961Z,7.39
2023-02-01T21:42:09.155Z,7.37
2023-02-01T21:44:35.668Z,7.33
2023-02-01T21:47:02.383Z,7.33
2023-02-01T21:49:29.056Z,7.29
2023-02-01T21:52:06.624Z,7.28
2023-02-01T21:54:33.127Z,7.27
2023-02-01T21:57:00.040Z,7.27
2023-02-01T21:59:26.586Z,7.26
2023-02-01T22:01:53.160Z,7.24
2023-02-01T22:04:19.675Z,7.24
2023-02-01T22:06:46.436Z,7.26
2023-02-01T22:09:21.910Z,7.23
2023-02-01T22:11:49.480Z,7.16
2023-02-01T22:14:19.267Z,7.10
2023-02-01T22:16:46.493Z,7.08
2023-02-01T22:19:14.009Z,7.05
2023-02-01T22:21:42.462Z,7.01
2023-02-01T22:24:11.126Z,6.99
2023-02-01T22:26:37.726Z,6.93
2023-02-01T22:29:04.491Z,6.90
2023-02-01T22:31:31.053Z,6.89
2023-02-01T22:33:57.586Z,6.91
2023-02-01T22:36:25.156Z,6.93
2023-02-01T22:38:52.992Z,6.95
2023-02-01T22:41:20.319Z,6.97
2023-02-01T22:43:47.241Z,6.99
2023-02-01T22:46:16.228Z,7.00
2023-02-01T22:48:44.978Z,6.97
2023-02-01T22:51:17.245Z,6.94
2023-02-01T22:53:43.899Z,6.91
2023-02-01T22:56:12.271Z,6.91
2023-02-01T22:58:39.065Z,6.88
2023-02-01T23:01:08.170Z,6.87
2023-02-01T23:03:35.672Z,6.84
2023-02-01T23:06:03.431Z,6.84
2023-02-01T23:08:30.275Z,6.82
2023-02-01T23:11:06.709Z,6.81
2023-02-01T23:13:34.236Z,6.78
2023-02-01T23:16:05.612Z,6.76
2023-02-01T23:18:32.223Z,6.76
2023-02-01T23:21:03.730Z,6.74
2023-02-01T23:23:30.111Z,6.74
2023-02-01T23:25:56.459Z,6.75
2023-02-01T23:28:22.890Z,6.74
2023-02-01T23:30:49.433Z,6.74
2023-02-01T23:33:16.175Z,6.72
2023-02-01T23:35:42.635Z,6.71
2023-02-01T23:38:09.007Z,6.71
2023-02-01T23:40:35.579Z,6.73
2023-02-01T23:43:20.591Z,6.74
2023-02-01T23:45:46.960Z,6.75
2023-02-01T23:48:13.354Z,6.78
2023-02-01T23:50:39.894Z,6.81
2023-02-01T23:53:06.374Z,6.80
2023-02-01T23:55:32.727Z,6.80
2023-02-01T23:57:59.140Z,6.80
